Time;durP1;ratioP1;P1;durP2;ratioP2;P2;SDS_P1;SDS_P2;PMS_P1;PMS_P2;Temp;Humidity;BMP_temperature;BMP_pressure;BME280_temperature;BME280_humidity;BME280_pressure;Samples;Min_cycle;Max_cycle;Signal;HPM_P1;HPM_P2
2023/06/12 00:01:44;;;;;;;3.33;2.40;;;23.00;70.40;;;;;;5074768;28;20029;-86
2023/06/12 00:04:10;;;;;;;3.70;2.58;;;22.90;70.40;;;;;;5074001;28;20481;-84
2023/06/12 00:06:37;;;;;;;4.20;2.35;;;22.90;70.60;;;;;;5073985;28;20031;-86
2023/06/12 00:09:04;;;;;;;3.40;2.50;;;22.90;70.80;;;;;;5065074;28;20028;-84
2023/06/12 00:11:30;;;;;;;4.45;2.30;;;22.80;70.80;;;;;;5063783;28;20474;-87
2023/06/12 00:13:55;;;;;;;4.13;2.45;;;22.80;70.90;;;;;;5074380;28;20052;-86
2023/06/12 00:16:22;;;;;;;3.33;2.33;;;22.80;71.00;;;;;;5059266;28;20131;-85
2023/06/12 00:18:49;;;;;;;3.88;2.33;;;22.70;71.00;;;;;;5074396;28;20024;-82
2023/06/12 00:21:15;;;;;;;3.30;2.40;;;22.70;71.10;;;;;;5075631;28;20020;-82
2023/06/12 00:23:41;;;;;;;4.32;2.60;;;22.60;71.20;;;;;;5075263;28;20048;-84
2023/06/12 00:26:08;;;;;;;4.95;2.65;;;22.60;71.10;;;;;;5075355;28;20024;-84
2023/06/12 00:28:34;;;;;;;4.05;2.83;;;22.60;71.20;;;;;;5074241;28;20047;-82
2023/06/12 00:31:00;;;;;;;3.13;2.38;;;22.60;71.10;;;;;;5074266;28;20470;-83
2023/06/12 00:33:26;;;;;;;4.38;2.63;;;22.50;71.20;;;;;;5074623;28;20040;-88
2023/06/12 00:35:52;;;;;;;4.57;2.50;;;22.50;71.40;;;;;;5074241;28;20030;-85
2023/06/12 00:38:19;;;;;;;4.68;2.42;;;22.50;71.60;;;;;;5076238;28;20073;-85
2023/06/12 00:40:45;;;;;;;3.33;2.42;;;22.40;71.70;;;;;;5059885;28;20012;-83
2023/06/12 00:43:11;;;;;;;3.42;2.33;;;22.40;71.80;;;;;;5073429;28;20242;-83
2023/06/12 00:45:36;;;;;;;3.58;2.60;;;22.30;71.80;;;;;;5057914;28;20399;-82
2023/06/12 00:48:03;;;;;;;4.32;2.42;;;22.30;71.90;;;;;;5073789;28;20470;-85
2023/06/12 00:50:29;;;;;;;4.55;2.20;;;22.30;72.00;;;;;;5064694;28;20479;-83
2023/06/12 00:52:59;;;;;;;4.03;2.08;;;22.20;72.10;;;;;;5074602;28;20047;-83
2023/06/12 00:55:26;;;;;;;3.28;2.53;;;22.20;72.30;;;;;;5064185;28;20086;-84
2023/06/12 00:57:51;;;;;;;3.75;2.45;;;22.10;72.30;;;;;;5073288;28;20486;-84
2023/06/12 01:00:19;;;;;;;3.78;2.50;;;22.20;72.50;;;;;;5073609;28;20034;-83
2023/06/12 01:02:51;;;;;;;3.50;2.50;;;22.10;72.50;;;;;;5073059;28;20021;-83
2023/06/12 01:05:32;;;;;;;3.13;2.43;;;22.00;72.50;;;;;;5064284;28;20065;-83
2023/06/12 01:08:26;;;;;;;3.47;2.58;;;22.00;72.70;;;;;;5065380;28;20361;-83
2023/06/12 01:10:57;;;;;;;2.92;2.38;;;22.00;72.80;;;;;;5072618;28;20157;-83
2023/06/12 01:13:23;;;;;;;5.68;2.65;;;21.90;72.90;;;;;;5074024;28;20115;-84
2023/06/12 01:15:49;;;;;;;4.10;2.60;;;21.90;72.90;;;;;;5057535;28;20119;-85
2023/06/12 01:18:17;;;;;;;4.20;2.20;;;21.90;73.00;;;;;;5073316;28;20482;-84
2023/06/12 01:20:43;;;;;;;3.10;2.38;;;21.80;73.10;;;;;;5071865;28;20021;-85
2023/06/12 01:23:51;;;;;;;3.80;2.67;;;21.80;73.20;;;;;;5073868;28;20101;-86
2023/06/12 01:26:33;;;;;;;3.78;2.40;;;21.80;73.50;;;;;;5057710;28;20040;-85
2023/06/12 01:29:22;;;;;;;3.78;2.78;;;21.70;73.50;;;;;;5056838;28;20043;-85
2023/06/12 01:31:56;;;;;;;3.30;2.45;;;21.70;73.60;;;;;;5059393;28;20020;-85
2023/06/12 01:34:27;;;;;;;3.40;2.25;;;21.60;73.70;;;;;;5072823;28;20589;-85
2023/06/12 01:37:05;;;;;;;3.08;2.30;;;21.60;73.90;;;;;;5056423;28;20142;-86
2023/06/12 01:39:40;;;;;;;2.85;2.33;;;21.50;74.00;;;;;;5075612;28;20098;-85
2023/06/12 01:42:10;;;;;;;4.00;2.50;;;21.50;74.10;;;;;;5074310;28;20521;-85
2023/06/12 01:44:36;;;;;;;4.00;2.38;;;21.40;74.20;;;;;;5071500;28;20028;-85
2023/06/12 01:47:03;;;;;;;4.65;2.50;;;21.40;74.30;;;;;;5074235;28;20496;-86
2023/06/12 01:49:28;;;;;;;3.35;2.25;;;21.30;74.30;;;;;;5058862;28;20574;-87
2023/06/12 01:51:54;;;;;;;3.47;2.40;;;21.30;74.50;;;;;;5062425;28;20111;-83
2023/06/12 01:54:21;;;;;;;4.15;2.90;;;21.30;74.60;;;;;;5071522;28;20041;-85
2023/06/12 01:56:46;;;;;;;4.72;2.60;;;21.20;74.80;;;;;;5072259;28;20120;-86
2023/06/12 01:59:14;;;;;;;3.75;2.60;;;21.10;75.00;;;;;;5074296;28;20040;-84
2023/06/12 02:01:39;;;;;;;3.17;2.15;;;21.10;75.10;;;;;;5074756;28;20621;-85
2023/06/12 02:04:06;;;;;;;5.32;2.60;;;21.00;75.20;;;;;;5073442;28;20533;-85
2023/06/12 02:06:32;;;;;;;3.97;2.70;;;21.00;75.30;;;;;;5074920;28;20508;-85
2023/06/12 02:08:57;;;;;;;4.28;2.65;;;21.00;75.30;;;;;;5074748;28;20028;-86
2023/06/12 02:11:23;;;;;;;4.57;2.55;;;20.90;75.50;;;;;;5076174;28;20021;-85
2023/06/12 02:13:49;;;;;;;4.93;2.50;;;20.90;75.60;;;;;;5072737;28;20032;-84
2023/06/12 02:16:21;;;;;;;4.30;2.60;;;20.90;75.70;;;;;;5054684;28;20070;-80
2023/06/12 02:18:47;;;;;;;3.40;2.35;;;20.90;75.80;;;;;;5073002;28;20531;-85
2023/06/12 02:21:12;;;;;;;4.00;2.50;;;20.70;75.90;;;;;;5056237;28;20028;-84
2023/06/12 02:23:38;;;;;;;3.85;2.58;;;20.70;76.00;;;;;;5061269;28;20048;-85
2023/06/12 02:26:03;;;;;;;4.07;2.47;;;20.70;76.10;;;;;;5073681;28;20032;-84
2023/06/12 02:28:29;;;;;;;3.38;2.50;;;20.60;76.40;;;;;;5073086;28;20028;-83
2023/06/12 02:30:55;;;;;;;4.43;2.58;;;20.60;76.50;;;;;;5073167;28;20456;-85
2023/06/12 02:33:22;;;;;;;5.20;2.60;;;20.60;76.50;;;;;;5072171;28;20058;-86
2023/06/12 02:35:47;;;;;;;4.25;2.63;;;20.50;76.70;;;;;;5074041;28;20044;-85
2023/06/12 02:38:13;;;;;;;3.92;2.67;;;20.50;77.30;;;;;;5059639;28;20153;-88
2023/06/12 02:40:39;;;;;;;4.75;2.70;;;20.40;76.70;;;;;;5063540;28;20032;-84
2023/06/12 02:43:04;;;;;;;3.53;2.45;;;20.40;76.90;;;;;;5064286;28;20064;-84
2023/06/12 02:45:30;;;;;;;2.72;2.30;;;20.30;76.90;;;;;;5072869;28;20028;-84
2023/06/12 02:47:56;;;;;;;3.53;2.45;;;20.30;77.10;;;;;;5057856;28;20028;-86
2023/06/12 02:50:21;;;;;;;3.05;2.17;;;20.30;77.10;;;;;;5072734;28;20043;-86
2023/06/12 02:52:48;;;;;;;4.40;2.72;;;20.30;77.20;;;;;;5059497;28;20555;-87
2023/06/12 02:55:14;;;;;;;3.50;2.42;;;20.20;77.20;;;;;;5063205;28;20450;-84
2023/06/12 02:57:39;;;;;;;3.17;2.20;;;20.20;77.20;;;;;;5072005;28;20029;-86
2023/06/12 03:00:05;;;;;;;3.92;2.45;;;20.20;77.30;;;;;;5062034;28;20349;-82
2023/06/12 03:02:31;;;;;;;3.35;2.40;;;20.10;77.30;;;;;;5056425;28;20444;-84
2023/06/12 03:04:59;;;;;;;3.50;2.72;;;20.10;77.30;;;;;;5073772;28;20024;-83
2023/06/12 03:07:26;;;;;;;3.97;2.70;;;20.10;77.40;;;;;;5077833;28;20132;-83
2023/06/12 03:09:52;;;;;;;4.50;2.60;;;20.10;77.50;;;;;;5059757;28;20024;-83
2023/06/12 03:12:18;;;;;;;3.45;2.45;;;20.00;77.50;;;;;;5076330;28;20037;-81
2023/06/12 03:14:44;;;;;;;3.97;2.50;;;20.00;78.30;;;;;;5066221;28;21735;-83
2023/06/12 03:17:09;;;;;;;3.40;2.70;;;20.00;77.70;;;;;;5060190;28;20020;-84
2023/06/12 03:19:35;;;;;;;4.22;2.80;;;19.90;77.70;;;;;;5076679;28;20348;-83
2023/06/12 03:22:01;;;;;;;3.40;2.60;;;19.90;77.70;;;;;;5062319;28;20028;-83
2023/06/12 03:24:29;;;;;;;4.70;2.80;;;19.90;77.80;;;;;;5076008;28;20582;-83
2023/06/12 03:26:58;;;;;;;5.38;2.53;;;19.90;77.70;;;;;;5061218;28;20025;-84
2023/06/12 03:29:24;;;;;;;4.43;2.40;;;19.80;77.60;;;;;;5060495;28;20051;-85
2023/06/12 03:31:50;;;;;;;5.40;2.78;;;19.80;77.60;;;;;;5074622;28;20351;-84
2023/06/12 03:34:16;;;;;;;3.58;2.33;;;19.80;77.60;;;;;;5059358;28;20374;-84
2023/06/12 03:36:43;;;;;;;3.47;2.50;;;19.80;77.60;;;;;;5077263;28;20031;-85
2023/06/12 03:39:09;;;;;;;4.20;2.88;;;19.80;77.60;;;;;;5060814;28;20031;-86
2023/06/12 03:41:35;;;;;;;3.63;2.70;;;19.80;77.60;;;;;;5058521;28;20070;-83
2023/06/12 03:44:01;;;;;;;4.30;2.45;;;19.80;77.80;;;;;;5074383;28;20066;-84
2023/06/12 03:46:30;;;;;;;3.80;2.22;;;19.70;77.80;;;;;;5060348;28;20020;-83
2023/06/12 03:48:56;;;;;;;5.30;3.00;;;19.80;77.80;;;;;;5074358;28;20401;-84
2023/06/12 03:51:22;;;;;;;4.18;2.05;;;19.80;77.90;;;;;;5075718;28;20037;-86
2023/06/12 03:53:47;;;;;;;3.42;2.35;;;19.70;77.80;;;;;;5063817;28;20048;-85
2023/06/12 03:56:13;;;;;;;5.00;2.97;;;19.80;77.90;;;;;;5059928;28;20028;-83
2023/06/12 03:58:38;;;;;;;3.03;2.35;;;19.70;77.90;;;;;;5074113;28;20059;-83
2023/06/12 04:01:04;;;;;;;3.47;2.28;;;19.70;77.80;;;;;;5059054;28;20028;-85
2023/06/12 04:03:30;;;;;;;4.22;2.28;;;19.70;77.90;;;;;;5065713;28;20067;-85
2023/06/12 04:05:56;;;;;;;3.72;2.63;;;19.70;78.00;;;;;;5074539;28;20012;-83
2023/06/12 04:08:22;;;;;;;4.13;2.53;;;19.70;78.10;;;;;;5075881;28;20032;-85
2023/06/12 04:10:47;;;;;;;3.35;2.30;;;19.70;78.10;;;;;;5057875;28;20020;-84
2023/06/12 04:13:13;;;;;;;4.05;2.10;;;19.70;78.10;;;;;;5074447;28;20386;-85
2023/06/12 04:15:39;;;;;;;3.30;2.42;;;19.70;78.20;;;;;;5059734;28;20024;-83
2023/06/12 04:18:07;;;;;;;5.22;2.65;;;19.70;78.20;;;;;;5057128;28;20028;-84
2023/06/12 04:20:33;;;;;;;3.55;2.50;;;19.70;78.30;;;;;;5075736;28;20012;-84
2023/06/12 04:23:04;;;;;;;3.50;2.50;;;19.70;78.40;;;;;;5061844;28;20085;-84
2023/06/12 04:25:32;;;;;;;3.35;2.40;;;19.70;78.50;;;;;;5074311;28;20081;-84
2023/06/12 04:27:59;;;;;;;3.30;2.25;;;19.80;78.60;;;;;;5064581;28;20028;-84
2023/06/12 04:30:25;;;;;;;3.40;2.53;;;19.80;78.70;;;;;;5074919;28;20099;-86
2023/06/12 04:32:53;;;;;;;6.22;2.72;;;19.80;78.80;;;;;;5059913;28;20094;-86
2023/06/12 04:35:19;;;;;;;5.32;2.58;;;19.90;78.80;;;;;;5075752;28;20020;-85
2023/06/12 04:37:48;;;;;;;4.13;2.42;;;19.80;78.70;;;;;;5075675;28;20030;-84
2023/06/12 04:40:14;;;;;;;4.57;2.50;;;19.90;78.70;;;;;;5060479;28;20031;-85
2023/06/12 04:42:43;;;;;;;3.15;2.38;;;19.90;78.70;;;;;;5064884;28;20027;-84
2023/06/12 04:45:09;;;;;;;3.50;2.20;;;19.90;78.80;;;;;;5075144;28;20115;-84
2023/06/12 04:47:36;;;;;;;3.53;2.38;;;20.00;78.90;;;;;;5075468;28;20388;-82
2023/06/12 04:50:02;;;;;;;4.32;2.30;;;20.00;79.00;;;;;;5064344;28;20023;-80
2023/06/12 04:52:27;;;;;;;3.15;2.10;;;20.10;79.10;;;;;;5075186;28;20041;-81
2023/06/12 04:54:53;;;;;;;3.75;2.45;;;20.10;79.20;;;;;;5064053;28;20117;-81
2023/06/12 04:57:19;;;;;;;3.75;2.50;;;20.10;79.20;;;;;;5073442;28;20028;-80
2023/06/12 04:59:52;;;;;;;4.28;2.70;;;20.20;79.20;;;;;;5073549;28;20029;-83
2023/06/12 05:02:18;;;;;;;3.30;2.15;;;20.20;79.20;;;;;;5074223;28;20418;-82
2023/06/12 05:04:43;;;;;;;3.20;2.17;;;20.30;79.30;;;;;;5074633;28;20044;-82
2023/06/12 05:07:17;;;;;;;3.30;2.25;;;20.30;79.30;;;;;;5075111;28;20125;-82
2023/06/12 05:09:46;;;;;;;4.07;2.90;;;20.40;79.20;;;;;;5074399;28;20093;-81
2023/06/12 05:12:12;;;;;;;4.82;2.40;;;20.40;79.20;;;;;;5072113;28;20032;-83
2023/06/12 05:14:39;;;;;;;3.28;2.20;;;20.40;79.00;;;;;;5073308;28;20032;-83
2023/06/12 05:17:05;;;;;;;3.50;2.40;;;20.40;79.00;;;;;;5072341;28;20060;-82
2023/06/12 05:19:30;;;;;;;3.25;2.40;;;20.50;79.00;;;;;;5064432;28;20459;-82
2023/06/12 05:21:56;;;;;;;3.75;2.35;;;20.50;78.90;;;;;;5057792;28;20572;-82
2023/06/12 05:24:21;;;;;;;4.20;2.33;;;20.60;79.00;;;;;;5058097;28;20027;-83
2023/06/12 05:26:47;;;;;;;4.10;2.78;;;20.60;78.90;;;;;;5074303;28;20043;-81
2023/06/12 05:29:13;;;;;;;3.45;2.42;;;20.70;78.90;;;;;;5058803;28;20044;-82
2023/06/12 05:31:38;;;;;;;4.25;2.72;;;20.70;78.80;;;;;;5062542;28;20111;-83
2023/06/12 05:34:04;;;;;;;3.28;2.30;;;20.70;78.90;;;;;;5071837;28;20049;-80
2023/06/12 05:36:30;;;;;;;3.75;2.22;;;20.70;78.80;;;;;;5058624;28;20117;-81
2023/06/12 05:38:55;;;;;;;5.60;2.47;;;20.80;78.80;;;;;;5071553;28;20036;-80
2023/06/12 05:41:21;;;;;;;4.80;2.40;;;20.80;78.70;;;;;;5062208;28;20030;-80
2023/06/12 05:43:46;;;;;;;4.25;2.25;;;20.80;78.60;;;;;;5062265;28;20145;-81
2023/06/12 05:46:13;;;;;;;3.75;2.42;;;20.90;78.80;;;;;;5070983;28;20110;-81
2023/06/12 05:48:39;;;;;;;3.58;2.60;;;20.90;78.70;;;;;;5073050;28;20533;-81
2023/06/12 05:51:05;;;;;;;4.28;2.30;;;21.00;78.70;;;;;;5073571;28;20016;-81
2023/06/12 05:53:33;;;;;;;3.53;2.45;;;21.10;78.60;;;;;;5059510;28;20077;-80
2023/06/12 05:55:59;;;;;;;4.32;2.35;;;21.10;78.90;;;;;;5070115;28;20114;-80
2023/06/12 05:58:25;;;;;;;3.63;2.33;;;21.20;78.30;;;;;;5069215;28;20045;-80
2023/06/12 06:00:52;;;;;;;3.72;2.10;;;21.30;78.20;;;;;;5053983;28;20031;-81
2023/06/12 06:03:19;;;;;;;4.22;2.60;;;21.30;78.80;;;;;;5059156;28;20547;-82
2023/06/12 06:05:46;;;;;;;3.50;2.40;;;21.40;78.00;;;;;;5054869;28;20031;-81
2023/06/12 06:08:12;;;;;;;3.20;2.47;;;21.50;78.10;;;;;;5053385;28;20028;-82
2023/06/12 06:10:37;;;;;;;3.35;2.38;;;21.50;78.00;;;;;;5059384;28;20051;-80
2023/06/12 06:13:03;;;;;;;3.78;2.60;;;21.60;77.90;;;;;;5069977;28;20050;-81
2023/06/12 06:15:29;;;;;;;4.22;2.50;;;21.60;77.80;;;;;;5052686;28;20044;-80
2023/06/12 06:17:54;;;;;;;6.95;2.53;;;21.70;77.80;;;;;;5060792;28;20032;-79
2023/06/12 06:20:20;;;;;;;5.57;2.35;;;21.80;77.80;;;;;;5070012;28;20121;-80
2023/06/12 06:22:46;;;;;;;4.30;2.22;;;21.80;77.70;;;;;;5058546;28;20062;-80
2023/06/12 06:25:13;;;;;;;3.55;2.50;;;21.90;77.60;;;;;;5068486;28;20472;-80
2023/06/12 06:27:38;;;;;;;3.00;2.35;;;21.90;77.60;;;;;;5069120;28;20040;-79
2023/06/12 06:30:05;;;;;;;4.35;2.40;;;22.00;77.40;;;;;;5068171;28;20024;-81
2023/06/12 06:32:30;;;;;;;4.05;2.95;;;22.00;77.30;;;;;;5070809;28;20016;-80
2023/06/12 06:34:56;;;;;;;4.00;2.55;;;22.10;77.30;;;;;;5071248;28;20086;-81
2023/06/12 06:37:22;;;;;;;4.95;2.78;;;22.10;77.20;;;;;;5072107;28;20068;-81
2023/06/12 06:39:48;;;;;;;5.13;2.80;;;22.20;77.00;;;;;;5056413;28;20055;-78
2023/06/12 06:42:14;;;;;;;4.75;2.95;;;22.20;76.90;;;;;;5073476;28;20031;-79
2023/06/12 06:44:39;;;;;;;4.13;2.88;;;22.30;77.00;;;;;;5061094;28;20393;-79
2023/06/12 06:47:07;;;;;;;6.22;3.13;;;22.30;77.20;;;;;;5074634;28;20974;-79
2023/06/12 06:49:33;;;;;;;4.35;3.00;;;22.40;77.10;;;;;;5074676;28;20478;-80
2023/06/12 06:51:58;;;;;;;3.60;2.80;;;22.40;76.90;;;;;;5075019;28;20027;-79
2023/06/12 06:54:24;;;;;;;4.82;3.00;;;22.40;76.90;;;;;;5076210;28;20042;-82
2023/06/12 06:56:50;;;;;;;4.15;3.30;;;22.40;76.90;;;;;;5064008;28;20050;-82
2023/06/12 06:59:16;;;;;;;3.80;2.85;;;22.50;76.70;;;;;;5075560;28;20026;-82
2023/06/12 07:01:41;;;;;;;4.22;2.90;;;22.50;76.70;;;;;;5061301;28;20078;-81
2023/06/12 07:04:07;;;;;;;4.13;2.92;;;22.50;76.80;;;;;;5065552;28;20468;-81
2023/06/12 07:06:33;;;;;;;5.05;3.10;;;22.60;76.80;;;;;;5075308;28;20486;-82
2023/06/12 07:09:00;;;;;;;4.40;2.85;;;22.60;76.70;;;;;;5074907;28;20119;-83
2023/06/12 07:11:26;;;;;;;4.20;3.08;;;22.60;76.90;;;;;;5075385;28;20112;-81
2023/06/12 07:13:51;;;;;;;4.18;2.90;;;22.70;76.70;;;;;;5057706;28;20061;-81
2023/06/12 07:16:17;;;;;;;3.85;2.97;;;22.70;76.60;;;;;;5076258;28;20380;-81
2023/06/12 07:18:43;;;;;;;3.88;3.00;;;22.80;76.50;;;;;;5077510;28;20085;-81
2023/06/12 07:21:08;;;;;;;4.13;3.25;;;22.80;76.50;;;;;;5064624;28;20028;-82
2023/06/12 07:23:34;;;;;;;4.78;3.03;;;22.90;76.60;;;;;;5075386;28;20461;-82
2023/06/12 07:25:59;;;;;;;5.18;3.60;;;22.90;76.60;;;;;;5074892;28;20024;-81
2023/06/12 07:28:25;;;;;;;4.43;2.95;;;22.90;76.50;;;;;;5075939;28;20035;-81
2023/06/12 07:30:51;;;;;;;5.60;3.00;;;23.00;76.50;;;;;;5074537;28;22371;-82
2023/06/12 07:33:17;;;;;;;4.10;2.97;;;23.00;76.40;;;;;;5065035;28;20036;-81
2023/06/12 07:35:42;;;;;;;5.90;3.22;;;23.10;76.40;;;;;;5063457;28;20428;-82
2023/06/12 07:38:08;;;;;;;6.05;3.42;;;23.10;76.30;;;;;;5074329;28;20031;-81
2023/06/12 07:40:33;;;;;;;5.10;3.17;;;23.20;76.50;;;;;;5060620;28;20170;-82
2023/06/12 07:42:59;;;;;;;5.57;3.70;;;23.30;76.40;;;;;;5058580;28;20653;-82
2023/06/12 07:45:24;;;;;;;4.45;3.40;;;23.40;76.40;;;;;;5065680;28;20028;-83
2023/06/12 07:47:52;;;;;;;4.63;3.22;;;23.40;76.30;;;;;;5059262;28;20032;-82
2023/06/12 07:50:19;;;;;;;6.03;3.33;;;23.40;76.50;;;;;;5074316;28;21244;-82
2023/06/12 07:52:44;;;;;;;4.30;2.95;;;23.40;76.40;;;;;;5073788;28;20151;-82
2023/06/12 07:55:10;;;;;;;4.45;2.83;;;23.50;76.60;;;;;;5075581;28;20032;-81
2023/06/12 07:57:36;;;;;;;4.50;3.20;;;23.50;76.70;;;;;;5062485;28;21931;-82
2023/06/12 08:00:05;;;;;;;4.07;2.92;;;23.50;76.70;;;;;;5074404;28;20090;-83
2023/06/12 08:02:33;;;;;;;3.88;3.10;;;23.60;76.70;;;;;;5059042;28;20032;-82
2023/06/12 08:04:59;;;;;;;4.28;2.90;;;23.70;76.80;;;;;;5066938;28;20038;-82
2023/06/12 08:07:26;;;;;;;4.68;2.92;;;23.70;76.70;;;;;;5064775;28;20032;-82
2023/06/12 08:09:52;;;;;;;5.70;3.65;;;23.80;76.70;;;;;;5074451;28;20041;-82
2023/06/12 08:12:18;;;;;;;5.82;3.63;;;23.90;76.50;;;;;;5073069;28;20546;-81
2023/06/12 08:14:47;;;;;;;3.75;2.88;;;24.00;76.50;;;;;;5064387;28;20462;-81
2023/06/12 08:17:13;;;;;;;4.82;2.85;;;24.00;76.50;;;;;;5073432;28;20043;-83
2023/06/12 08:19:40;;;;;;;3.95;2.88;;;24.20;76.70;;;;;;5073948;28;20489;-83
2023/06/12 08:22:07;;;;;;;3.40;2.63;;;24.20;76.70;;;;;;5072284;28;20617;-82
2023/06/12 08:24:35;;;;;;;4.55;3.03;;;24.30;76.60;;;;;;5074537;28;20028;-83
2023/06/12 08:27:02;;;;;;;4.47;2.72;;;24.40;76.50;;;;;;5072175;28;20082;-81
2023/06/12 08:29:28;;;;;;;5.40;3.28;;;24.60;76.30;;;;;;5075156;28;20028;-81
2023/06/12 08:31:55;;;;;;;4.25;3.20;;;24.60;76.10;;;;;;5074505;28;20024;-82
2023/06/12 08:34:24;;;;;;;3.88;3.03;;;24.70;76.00;;;;;;5060209;28;20032;-81
2023/06/12 08:36:50;;;;;;;4.32;3.08;;;24.70;76.00;;;;;;5073081;28;20171;-82
2023/06/12 08:39:16;;;;;;;4.03;3.05;;;24.80;75.90;;;;;;5062448;28;20023;-81
2023/06/12 08:42:01;;;;;;;4.43;3.17;;;24.90;75.60;;;;;;5074030;28;20027;-82
2023/06/12 08:44:28;;;;;;;5.20;3.22;;;25.00;75.30;;;;;;5062059;28;20024;-82
2023/06/12 08:46:56;;;;;;;4.10;3.30;;;25.10;75.20;;;;;;5058385;28;20032;-82
2023/06/12 08:49:22;;;;;;;4.97;3.22;;;25.20;75.10;;;;;;5074232;28;20024;-81
2023/06/12 08:51:51;;;;;;;6.35;3.30;;;25.30;75.00;;;;;;5056799;28;20069;-81
2023/06/12 08:54:18;;;;;;;3.83;3.20;;;25.40;75.10;;;;;;5072738;28;20402;-82
2023/06/12 08:56:47;;;;;;;4.15;2.88;;;25.50;74.80;;;;;;5073906;28;20093;-82
2023/06/12 08:59:14;;;;;;;5.13;3.33;;;25.50;74.70;;;;;;5073333;28;20038;-84
2023/06/12 09:01:41;;;;;;;4.30;3.38;;;25.60;74.40;;;;;;5062672;28;20048;-83
2023/06/12 09:04:16;;;;;;;4.38;3.28;;;25.70;74.30;;;;;;5065357;28;20027;-84
2023/06/12 09:06:42;;;;;;;5.22;3.38;;;25.90;74.10;;;;;;5056956;28;20031;-83
2023/06/12 09:09:08;;;;;;;3.60;3.10;;;26.00;73.60;;;;;;5071732;28;20047;-81
2023/06/12 09:11:40;;;;;;;5.07;3.33;;;26.10;73.80;;;;;;5073228;28;20028;-82
2023/06/12 09:14:06;;;;;;;4.43;3.40;;;26.30;73.50;;;;;;5057381;28;20382;-81
2023/06/12 09:16:32;;;;;;;4.85;3.25;;;26.40;73.10;;;;;;5074521;28;20135;-82
2023/06/12 09:18:58;;;;;;;5.53;4.00;;;26.50;72.50;;;;;;5073174;28;20028;-82
2023/06/12 09:21:24;;;;;;;4.03;3.40;;;26.60;72.10;;;;;;5072781;28;20028;-82
2023/06/12 09:23:55;;;;;;;5.65;3.20;;;26.80;72.70;;;;;;5056788;28;20386;-82
2023/06/12 09:26:22;;;;;;;5.07;3.80;;;26.90;72.00;;;;;;5073389;28;20531;-83
2023/06/12 09:28:52;;;;;;;4.05;3.17;;;27.00;71.80;;;;;;5062961;28;20024;-82
2023/06/12 09:31:18;;;;;;;5.57;3.45;;;27.30;71.80;;;;;;5074252;28;20035;-83
2023/06/12 09:33:44;;;;;;;4.45;3.47;;;27.80;71.60;;;;;;5062709;28;20028;-82
2023/06/12 09:36:11;;;;;;;6.38;3.55;;;29.00;70.80;;;;;;5065308;28;20081;-83
2023/06/12 09:38:37;;;;;;;4.07;3.30;;;30.30;69.50;;;;;;5062984;28;20032;-83
2023/06/12 09:41:04;;;;;;;5.00;3.17;;;31.20;68.50;;;;;;5072477;28;20043;-83
2023/06/12 09:43:31;;;;;;;6.30;3.33;;;32.10;67.60;;;;;;5065872;28;20055;-83
2023/06/12 09:45:58;;;;;;;4.40;3.30;;;32.70;66.40;;;;;;5073216;28;20024;-83
2023/06/12 09:48:24;;;;;;;3.85;3.00;;;33.30;65.50;;;;;;5056472;28;20104;-82
2023/06/12 09:50:50;;;;;;;4.38;3.40;;;33.70;64.80;;;;;;5071499;28;20619;-83
2023/06/12 09:53:17;;;;;;;3.97;3.00;;;34.10;64.00;;;;;;5071107;28;20043;-83
2023/06/12 09:55:45;;;;;;;5.10;3.05;;;34.40;62.50;;;;;;5062684;28;20070;-83
2023/06/12 09:58:13;;;;;;;4.47;3.55;;;34.70;61.80;;;;;;5073478;28;20043;-83
2023/06/12 10:00:39;;;;;;;3.50;2.88;;;34.90;61.10;;;;;;5059715;28;20102;-83
2023/06/12 10:03:09;;;;;;;3.20;2.90;;;35.40;61.10;;;;;;5072540;28;20115;-83
2023/06/12 10:05:37;;;;;;;3.78;3.03;;;35.60;59.90;;;;;;5070461;28;20021;-83
2023/06/12 10:08:04;;;;;;;3.58;3.10;;;35.90;59.60;;;;;;5056892;28;20039;-84
2023/06/12 10:10:36;;;;;;;5.47;3.60;;;36.20;59.50;;;;;;5061428;28;20079;-83
2023/06/12 10:13:03;;;;;;;3.35;3.00;;;36.60;58.60;;;;;;5072493;28;20036;-83
2023/06/12 10:15:30;;;;;;;3.38;3.05;;;36.60;57.20;;;;;;5063170;28;20073;-84
2023/06/12 10:17:57;;;;;;;4.32;3.20;;;36.60;57.10;;;;;;5075629;28;20510;-83
2023/06/12 10:20:24;;;;;;;5.88;3.35;;;36.70;56.50;;;;;;5062948;28;20024;-83
2023/06/12 10:22:53;;;;;;;3.58;3.05;;;36.70;55.80;;;;;;5074959;28;20413;-83
2023/06/12 10:25:19;;;;;;;5.18;3.63;;;36.60;55.20;;;;;;5074135;28;20029;-83
2023/06/12 10:27:46;;;;;;;4.53;3.20;;;36.70;54.60;;;;;;5068692;28;20020;-81
2023/06/12 10:30:16;;;;;;;4.15;3.42;;;36.70;54.30;;;;;;5077953;28;20042;-82
2023/06/12 10:32:45;;;;;;;3.72;3.25;;;37.00;53.80;;;;;;5075501;28;20035;-82
2023/06/12 10:35:11;;;;;;;3.60;2.70;;;37.20;53.90;;;;;;5059197;28;20039;-82
2023/06/12 10:37:42;;;;;;;5.80;3.05;;;37.50;53.90;;;;;;5075867;28;20024;-84
2023/06/12 10:40:18;;;;;;;4.67;2.90;;;37.80;53.60;;;;;;5074669;28;20046;-83
2023/06/12 10:42:53;;;;;;;4.95;3.30;;;38.00;53.30;;;;;;5059368;28;20285;-83
2023/06/12 10:45:29;;;;;;;3.78;3.20;;;38.10;53.10;;;;;;5049101;28;20032;-84
2023/06/12 10:48:01;;;;;;;6.65;3.05;;;38.30;53.10;;;;;;5072597;28;20024;-83
2023/06/12 10:50:26;;;;;;;5.30;3.33;;;38.50;52.80;;;;;;5062534;28;20027;-82
2023/06/12 10:52:54;;;;;;;3.67;3.25;;;38.50;52.50;;;;;;5071733;28;20028;-83
2023/06/12 10:55:20;;;;;;;4.15;3.20;;;38.50;52.50;;;;;;5058170;28;20040;-83
2023/06/12 10:57:55;;;;;;;5.03;2.97;;;38.70;52.60;;;;;;5073917;28;20024;-83
2023/06/12 11:00:31;;;;;;;4.28;3.30;;;39.00;52.80;;;;;;5072345;28;20072;-83
2023/06/12 11:03:06;;;;;;;6.20;3.40;;;39.20;52.50;;;;;;5072369;28;20489;-82
2023/06/12 11:05:33;;;;;;;4.40;3.67;;;39.10;52.30;;;;;;5056895;28;20127;-83
2023/06/12 11:08:02;;;;;;;3.35;2.97;;;39.00;52.20;;;;;;5055322;28;20059;-84
2023/06/12 11:10:28;;;;;;;5.18;3.22;;;39.00;52.40;;;;;;5060137;28;20016;-83
2023/06/12 11:12:54;;;;;;;4.65;3.50;;;39.20;52.50;;;;;;5061835;28;20639;-83
2023/06/12 11:15:23;;;;;;;3.95;3.30;;;39.20;52.50;;;;;;5074413;28;20119;-84
2023/06/12 11:17:51;;;;;;;3.78;3.10;;;39.10;52.60;;;;;;5075665;28;20032;-84
2023/06/12 11:20:19;;;;;;;4.75;3.10;;;39.30;52.70;;;;;;5074891;28;20466;-82
2023/06/12 11:22:46;;;;;;;3.80;3.40;;;39.40;52.50;;;;;;5064657;28;20048;-82
2023/06/12 11:25:12;;;;;;;4.22;3.65;;;39.50;52.30;;;;;;5063275;28;20054;-83
2023/06/12 11:27:38;;;;;;;4.05;3.65;;;39.60;52.20;;;;;;5061438;28;20021;-82
2023/06/12 11:30:08;;;;;;;3.67;3.28;;;39.40;52.60;;;;;;5063547;28;22361;-82
2023/06/12 11:32:34;;;;;;;3.67;3.15;;;39.20;52.60;;;;;;5060762;28;20103;-83
2023/06/12 11:35:02;;;;;;;5.32;3.00;;;39.20;52.90;;;;;;5074850;28;20118;-83
2023/06/12 11:37:28;;;;;;;4.07;3.10;;;39.30;53.00;;;;;;5060607;28;20020;-83
2023/06/12 11:40:10;;;;;;;3.90;3.35;;;39.50;53.20;;;;;;5059297;28;20031;-82
2023/06/12 11:42:41;;;;;;;4.05;3.53;;;39.80;52.60;;;;;;5075756;28;20178;-82
2023/06/12 11:45:14;;;;;;;4.05;3.25;;;39.90;52.80;;;;;;5074156;28;20028;-83
2023/06/12 11:47:45;;;;;;;4.60;3.40;;;40.00;52.80;;;;;;5075797;28;20115;-83
2023/06/12 11:50:13;;;;;;;5.88;3.60;;;40.10;53.00;;;;;;5075863;28;20028;-84
2023/06/12 11:52:44;;;;;;;4.20;3.25;;;39.70;52.60;;;;;;5073522;28;20120;-84
2023/06/12 11:55:12;;;;;;;5.50;2.97;;;39.60;52.80;;;;;;5075115;28;20031;-83
2023/06/12 11:57:39;;;;;;;4.90;3.67;;;39.70;53.00;;;;;;5075681;28;20101;-84
2023/06/12 12:00:12;;;;;;;3.85;3.47;;;38.90;53.10;;;;;;5064093;28;20020;-83
2023/06/12 12:02:41;;;;;;;3.97;3.28;;;38.50;53.70;;;;;;5074129;28;20025;-82
2023/06/12 12:05:09;;;;;;;4.15;3.20;;;38.80;53.90;;;;;;5059688;28;20028;-84
2023/06/12 12:07:39;;;;;;;5.43;3.30;;;39.10;53.60;;;;;;5065308;28;20016;-84
2023/06/12 12:10:08;;;;;;;3.75;3.20;;;39.20;53.40;;;;;;5057093;28;20028;-83
2023/06/12 12:12:49;;;;;;;3.90;3.25;;;39.50;53.40;;;;;;5075813;28;20098;-84
2023/06/12 12:15:16;;;;;;;4.00;3.30;;;39.80;53.00;;;;;;5074291;28;20050;-85
2023/06/12 12:17:42;;;;;;;4.40;3.42;;;39.30;52.90;;;;;;5063539;28;20035;-82
2023/06/12 12:20:24;;;;;;;3.60;3.30;;;38.30;53.00;;;;;;5059416;28;20411;-82
2023/06/12 12:22:57;;;;;;;4.82;2.75;;;38.00;53.60;;;;;;5058380;28;20521;-81
2023/06/12 12:25:25;;;;;;;4.15;3.15;;;38.40;53.90;;;;;;5064190;28;22385;-81
2023/06/12 12:27:52;;;;;;;4.00;3.22;;;38.70;54.00;;;;;;5060389;28;20088;-82
2023/06/12 12:30:18;;;;;;;4.20;2.95;;;39.10;53.80;;;;;;5074027;28;20102;-81
2023/06/12 12:32:46;;;;;;;3.35;2.90;;;39.20;53.90;;;;;;5073992;28;20034;-82
2023/06/12 12:35:16;;;;;;;3.45;2.80;;;39.50;53.70;;;;;;5073599;28;20036;-82
2023/06/12 12:37:43;;;;;;;3.13;2.72;;;39.70;53.30;;;;;;5063239;28;20016;-84
2023/06/12 12:40:10;;;;;;;4.22;3.13;;;39.80;53.40;;;;;;5074271;28;20032;-83
2023/06/12 12:42:37;;;;;;;3.17;2.83;;;40.10;53.10;;;;;;5061275;28;20020;-82
2023/06/12 12:45:03;;;;;;;4.10;3.05;;;39.90;52.80;;;;;;5062909;28;20078;-82
2023/06/12 12:47:29;;;;;;;6.15;3.28;;;39.80;52.60;;;;;;5073242;28;20048;-82
2023/06/12 12:49:55;;;;;;;4.18;2.75;;;39.30;52.50;;;;;;5056660;28;20143;-82